sensor_id;sensor_type;location;lat;lon;timestamp;P1;P4;P2;P0;N10;N4;N25;N1;N05;TS
43196;SPS30;28816;49.852;18.282;2023-12-20T00:01:11;15.880000;;15.690000;14.740000;;;;;;
43196;SPS30;28816;49.852;18.282;2023-12-20T00:06:14;17.560000;;17.480000;16.500000;;;;;;
43196;SPS30;28816;49.852;18.282;2023-12-20T00:11:16;16.980000;;16.990000;15.780000;;;;;;
43196;SPS30;28816;49.852;18.282;2023-12-20T00:16:18;16.260000;;16.230000;15.390000;;;;;;
43196;SPS30;28816;49.852;18.282;2023-12-20T00:21:20;16.620000;;16.670000;15.630000;;;;;;
43196;SPS30;28816;49.852;18.282;2023-12-20T00:26:22;17.150000;;17.030000;15.980000;;;;;;
43196;SPS30;28816;49.852;18.282;2023-12-20T00:31:24;17.680000;;17.670000;16.570000;;;;;;
43196;SPS30;28816;49.852;18.282;2023-12-20T00:36:26;17.960000;;17.830000;17.130000;;;;;;
43196;SPS30;28816;49.852;18.282;2023-12-20T00:41:28;16.710000;;16.630000;15.740000;;;;;;
43196;SPS30;28816;49.852;18.282;2023-12-20T00:46:30;18.680000;;18.560000;17.540000;;;;;;
43196;SPS30;28816;49.852;18.282;2023-12-20T00:51:33;18.070000;;17.930000;16.860000;;;;;;
43196;SPS30;28816;49.852;18.282;2023-12-20T00:56:35;17.370000;;17.130000;16.330000;;;;;;
43196;SPS30;28816;49.852;18.282;2023-12-20T01:01:37;17.500000;;17.500000;16.530000;;;;;;
43196;SPS30;28816;49.852;18.282;2023-12-20T01:06:39;18.210000;;18.110000;17.210000;;;;;;
43196;SPS30;28816;49.852;18.282;2023-12-20T01:11:41;17.430000;;17.370000;16.510000;;;;;;
43196;SPS30;28816;49.852;18.282;2023-12-20T01:16:43;17.930000;;17.900000;17.020000;;;;;;
43196;SPS30;28816;49.852;18.282;2023-12-20T01:21:46;18.000000;;17.980000;16.980000;;;;;;
43196;SPS30;28816;49.852;18.282;2023-12-20T01:26:47;18.050000;;17.850000;16.730000;;;;;;
43196;SPS30;28816;49.852;18.282;2023-12-20T01:31:49;17.430000;;17.100000;16.270000;;;;;;
43196;SPS30;28816;49.852;18.282;2023-12-20T01:36:51;16.530000;;16.500000;15.670000;;;;;;
43196;SPS30;28816;49.852;18.282;2023-12-20T01:41:54;16.750000;;16.740000;15.790000;;;;;;
43196;SPS30;28816;49.852;18.282;2023-12-20T01:46:56;16.350000;;16.320000;15.470000;;;;;;
43196;SPS30;28816;49.852;18.282;2023-12-20T01:51:57;17.580000;;17.520000;16.620000;;;;;;
43196;SPS30;28816;49.852;18.282;2023-12-20T01:57:00;17.840000;;17.690000;16.660000;;;;;;
43196;SPS30;28816;49.852;18.282;2023-12-20T02:02:02;18.610000;;18.430000;17.340000;;;;;;
43196;SPS30;28816;49.852;18.282;2023-12-20T02:07:05;17.420000;;17.460000;16.430000;;;;;;
43196;SPS30;28816;49.852;18.282;2023-12-20T02:12:08;18.620000;;18.380000;17.480000;;;;;;
43196;SPS30;28816;49.852;18.282;2023-12-20T02:17:10;18.570000;;18.430000;17.090000;;;;;;
43196;SPS30;28816;49.852;18.282;2023-12-20T02:22:12;18.110000;;17.790000;16.670000;;;;;;
43196;SPS30;28816;49.852;18.282;2023-12-20T02:27:14;17.880000;;17.720000;16.680000;;;;;;
43196;SPS30;28816;49.852;18.282;2023-12-20T02:32:17;18.160000;;18.090000;16.810000;;;;;;
43196;SPS30;28816;49.852;18.282;2023-12-20T02:37:20;16.240000;;16.160000;15.320000;;;;;;
43196;SPS30;28816;49.852;18.282;2023-12-20T02:42:22;17.900000;;17.820000;16.980000;;;;;;
43196;SPS30;28816;49.852;18.282;2023-12-20T02:47:24;14.160000;;14.050000;13.470000;;;;;;
43196;SPS30;28816;49.852;18.282;2023-12-20T02:52:26;16.590000;;16.460000;15.370000;;;;;;
43196;SPS30;28816;49.852;18.282;2023-12-20T02:57:29;18.680000;;18.520000;17.370000;;;;;;
43196;SPS30;28816;49.852;18.282;2023-12-20T03:02:31;17.940000;;17.820000;16.690000;;;;;;
43196;SPS30;28816;49.852;18.282;2023-12-20T03:07:33;16.970000;;16.930000;16.080000;;;;;;
43196;SPS30;28816;49.852;18.282;2023-12-20T03:12:36;16.530000;;16.510000;15.660000;;;;;;
43196;SPS30;28816;49.852;18.282;2023-12-20T03:17:38;17.500000;;17.270000;16.120000;;;;;;
43196;SPS30;28816;49.852;18.282;2023-12-20T03:22:40;18.070000;;18.020000;16.840000;;;;;;
43196;SPS30;28816;49.852;18.282;2023-12-20T03:27:43;17.860000;;17.730000;16.700000;;;;;;
43196;SPS30;28816;49.852;18.282;2023-12-20T03:32:44;16.740000;;16.760000;15.760000;;;;;;
43196;SPS30;28816;49.852;18.282;2023-12-20T03:37:46;17.550000;;17.550000;16.590000;;;;;;
43196;SPS30;28816;49.852;18.282;2023-12-20T03:42:48;18.410000;;18.390000;17.270000;;;;;;
43196;SPS30;28816;49.852;18.282;2023-12-20T03:47:51;18.680000;;18.610000;17.610000;;;;;;
43196;SPS30;28816;49.852;18.282;2023-12-20T03:52:53;17.930000;;17.700000;16.930000;;;;;;
43196;SPS30;28816;49.852;18.282;2023-12-20T03:57:55;18.670000;;18.620000;17.430000;;;;;;
43196;SPS30;28816;49.852;18.282;2023-12-20T04:02:57;18.750000;;18.830000;17.670000;;;;;;
43196;SPS30;28816;49.852;18.282;2023-12-20T04:07:59;19.170000;;19.130000;18.080000;;;;;;
43196;SPS30;28816;49.852;18.282;2023-12-20T04:13:02;19.310000;;19.330000;18.240000;;;;;;
43196;SPS30;28816;49.852;18.282;2023-12-20T04:18:05;19.840000;;19.590000;18.660000;;;;;;
43196;SPS30;28816;49.852;18.282;2023-12-20T04:23:07;19.680000;;19.620000;18.630000;;;;;;
43196;SPS30;28816;49.852;18.282;2023-12-20T04:28:09;20.680000;;20.400000;19.080000;;;;;;
43196;SPS30;28816;49.852;18.282;2023-12-20T04:33:11;20.520000;;20.360000;19.320000;;;;;;
43196;SPS30;28816;49.852;18.282;2023-12-20T04:38:13;19.920000;;19.860000;18.590000;;;;;;
43196;SPS30;28816;49.852;18.282;2023-12-20T04:43:16;19.640000;;19.600000;18.330000;;;;;;
43196;SPS30;28816;49.852;18.282;2023-12-20T04:48:18;19.890000;;19.590000;18.200000;;;;;;
43196;SPS30;28816;49.852;18.282;2023-12-20T04:53:20;21.460000;;21.230000;20.020000;;;;;;
43196;SPS30;28816;49.852;18.282;2023-12-20T04:58:22;21.490000;;21.350000;19.960000;;;;;;
43196;SPS30;28816;49.852;18.282;2023-12-20T05:03:24;21.300000;;21.180000;20.230000;;;;;;
43196;SPS30;28816;49.852;18.282;2023-12-20T05:08:26;21.760000;;21.660000;20.170000;;;;;;
43196;SPS30;28816;49.852;18.282;2023-12-20T05:13:28;20.340000;;20.250000;19.100000;;;;;;
43196;SPS30;28816;49.852;18.282;2023-12-20T05:18:30;21.420000;;21.500000;20.260000;;;;;;
43196;SPS30;28816;49.852;18.282;2023-12-20T05:23:32;21.480000;;21.390000;20.210000;;;;;;
43196;SPS30;28816;49.852;18.282;2023-12-20T05:28:35;17.680000;;17.350000;16.660000;;;;;;
43196;SPS30;28816;49.852;18.282;2023-12-20T05:33:36;19.030000;;19.150000;17.740000;;;;;;
43196;SPS30;28816;49.852;18.282;2023-12-20T05:38:39;18.470000;;18.420000;17.320000;;;;;;
43196;SPS30;28816;49.852;18.282;2023-12-20T05:43:40;18.600000;;18.520000;17.330000;;;;;;
43196;SPS30;28816;49.852;18.282;2023-12-20T05:48:42;18.530000;;18.340000;17.320000;;;;;;
43196;SPS30;28816;49.852;18.282;2023-12-20T05:53:45;19.150000;;19.150000;17.990000;;;;;;
43196;SPS30;28816;49.852;18.282;2023-12-20T05:58:47;19.060000;;19.150000;17.900000;;;;;;
43196;SPS30;28816;49.852;18.282;2023-12-20T06:03:48;19.970000;;19.950000;18.840000;;;;;;
43196;SPS30;28816;49.852;18.282;2023-12-20T06:08:51;19.430000;;19.510000;18.320000;;;;;;
43196;SPS30;28816;49.852;18.282;2023-12-20T06:13:53;22.380000;;22.070000;20.800000;;;;;;
43196;SPS30;28816;49.852;18.282;2023-12-20T06:18:55;22.060000;;21.590000;20.340000;;;;;;
43196;SPS30;28816;49.852;18.282;2023-12-20T06:23:57;21.150000;;21.190000;19.870000;;;;;;
43196;SPS30;28816;49.852;18.282;2023-12-20T06:28:59;22.060000;;21.880000;20.970000;;;;;;
43196;SPS30;28816;49.852;18.282;2023-12-20T06:34:01;23.810000;;23.700000;22.330000;;;;;;
43196;SPS30;28816;49.852;18.282;2023-12-20T06:39:03;25.360000;;25.260000;23.920000;;;;;;
43196;SPS30;28816;49.852;18.282;2023-12-20T06:44:05;26.690000;;26.490000;24.990000;;;;;;
43196;SPS30;28816;49.852;18.282;2023-12-20T06:49:07;25.720000;;25.680000;24.410000;;;;;;
43196;SPS30;28816;49.852;18.282;2023-12-20T06:54:09;27.850000;;27.530000;25.850000;;;;;;
43196;SPS30;28816;49.852;18.282;2023-12-20T06:59:12;26.940000;;26.890000;25.540000;;;;;;
43196;SPS30;28816;49.852;18.282;2023-12-20T07:04:14;28.240000;;27.860000;26.150000;;;;;;
43196;SPS30;28816;49.852;18.282;2023-12-20T07:09:16;29.830000;;29.810000;28.000000;;;;;;
43196;SPS30;28816;49.852;18.282;2023-12-20T07:14:18;28.950000;;28.660000;26.800000;;;;;;
43196;SPS30;28816;49.852;18.282;2023-12-20T07:19:20;30.380000;;30.210000;28.720000;;;;;;
43196;SPS30;28816;49.852;18.282;2023-12-20T07:24:22;30.350000;;30.190000;28.480000;;;;;;
43196;SPS30;28816;49.852;18.282;2023-12-20T07:29:24;30.640000;;30.530000;28.970000;;;;;;
43196;SPS30;28816;49.852;18.282;2023-12-20T07:34:26;31.660000;;31.340000;29.260000;;;;;;
43196;SPS30;28816;49.852;18.282;2023-12-20T07:39:28;30.790000;;30.820000;28.990000;;;;;;
43196;SPS30;28816;49.852;18.282;2023-12-20T07:44:30;32.020000;;31.850000;29.660000;;;;;;
43196;SPS30;28816;49.852;18.282;2023-12-20T07:49:32;31.000000;;30.520000;28.570000;;;;;;
43196;SPS30;28816;49.852;18.282;2023-12-20T07:54:34;29.580000;;29.400000;27.420000;;;;;;
43196;SPS30;28816;49.852;18.282;2023-12-20T07:59:36;30.810000;;30.410000;28.660000;;;;;;
43196;SPS30;28816;49.852;18.282;2023-12-20T08:04:38;30.430000;;30.220000;28.200000;;;;;;
43196;SPS30;28816;49.852;18.282;2023-12-20T08:09:40;29.540000;;29.440000;28.030000;;;;;;
43196;SPS30;28816;49.852;18.282;2023-12-20T08:14:42;29.080000;;29.030000;27.400000;;;;;;
43196;SPS30;28816;49.852;18.282;2023-12-20T08:19:44;29.110000;;28.640000;26.600000;;;;;;
43196;SPS30;28816;49.852;18.282;2023-12-20T08:24:46;28.060000;;27.950000;26.560000;;;;;;
43196;SPS30;28816;49.852;18.282;2023-12-20T08:29:48;27.180000;;26.940000;25.140000;;;;;;
43196;SPS30;28816;49.852;18.282;2023-12-20T08:34:49;26.090000;;25.550000;24.070000;;;;;;
43196;SPS30;28816;49.852;18.282;2023-12-20T08:39:51;26.000000;;25.810000;24.010000;;;;;;
43196;SPS30;28816;49.852;18.282;2023-12-20T08:44:53;27.000000;;26.670000;25.110000;;;;;;
43196;SPS30;28816;49.852;18.282;2023-12-20T08:49:55;25.790000;;25.380000;23.830000;;;;;;
43196;SPS30;28816;49.852;18.282;2023-12-20T08:54:57;27.250000;;27.210000;25.440000;;;;;;
43196;SPS30;28816;49.852;18.282;2023-12-20T09:00:00;26.270000;;26.360000;24.710000;;;;;;
43196;SPS30;28816;49.852;18.282;2023-12-20T09:05:02;26.020000;;25.700000;24.090000;;;;;;
43196;SPS30;28816;49.852;18.282;2023-12-20T09:10:04;25.000000;;25.060000;23.550000;;;;;;
43196;SPS30;28816;49.852;18.282;2023-12-20T09:15:06;25.150000;;25.090000;23.760000;;;;;;
43196;SPS30;28816;49.852;18.282;2023-12-20T09:20:08;24.200000;;23.920000;22.280000;;;;;;
43196;SPS30;28816;49.852;18.282;2023-12-20T09:25:10;23.760000;;23.570000;22.100000;;;;;;
43196;SPS30;28816;49.852;18.282;2023-12-20T09:30:13;23.610000;;23.490000;21.860000;;;;;;
43196;SPS30;28816;49.852;18.282;2023-12-20T09:35:15;21.380000;;21.400000;20.140000;;;;;;
43196;SPS30;28816;49.852;18.282;2023-12-20T09:40:17;21.110000;;21.040000;19.730000;;;;;;
43196;SPS30;28816;49.852;18.282;2023-12-20T09:45:19;22.540000;;22.520000;21.060000;;;;;;
43196;SPS30;28816;49.852;18.282;2023-12-20T09:50:22;21.170000;;21.000000;19.990000;;;;;;
43196;SPS30;28816;49.852;18.282;2023-12-20T09:55:24;22.390000;;22.210000;20.940000;;;;;;
43196;SPS30;28816;49.852;18.282;2023-12-20T10:00:27;23.510000;;23.170000;21.660000;;;;;;
43196;SPS30;28816;49.852;18.282;2023-12-20T10:05:30;20.040000;;19.930000;18.980000;;;;;;
43196;SPS30;28816;49.852;18.282;2023-12-20T10:10:32;18.850000;;18.830000;17.730000;;;;;;
43196;SPS30;28816;49.852;18.282;2023-12-20T10:15:34;19.820000;;19.580000;18.520000;;;;;;
43196;SPS30;28816;49.852;18.282;2023-12-20T10:20:37;19.720000;;19.530000;18.120000;;;;;;
43196;SPS30;28816;49.852;18.282;2023-12-20T10:25:40;17.860000;;17.790000;16.950000;;;;;;
43196;SPS30;28816;49.852;18.282;2023-12-20T10:30:42;19.830000;;19.540000;18.330000;;;;;;
43196;SPS30;28816;49.852;18.282;2023-12-20T10:35:44;18.650000;;18.570000;17.440000;;;;;;
43196;SPS30;28816;49.852;18.282;2023-12-20T10:40:46;17.700000;;17.610000;16.850000;;;;;;
43196;SPS30;28816;49.852;18.282;2023-12-20T10:45:52;17.770000;;17.570000;16.640000;;;;;;
43196;SPS30;28816;49.852;18.282;2023-12-20T10:50:53;17.830000;;17.720000;16.860000;;;;;;
43196;SPS30;28816;49.852;18.282;2023-12-20T10:55:56;17.550000;;17.410000;16.360000;;;;;;
43196;SPS30;28816;49.852;18.282;2023-12-20T11:01:00;16.130000;;16.020000;14.980000;;;;;;
43196;SPS30;28816;49.852;18.282;2023-12-20T11:06:03;16.540000;;16.430000;15.260000;;;;;;
43196;SPS30;28816;49.852;18.282;2023-12-20T11:11:08;16.250000;;16.180000;15.440000;;;;;;
43196;SPS30;28816;49.852;18.282;2023-12-20T11:16:13;17.930000;;17.800000;16.670000;;;;;;
43196;SPS30;28816;49.852;18.282;2023-12-20T11:21:15;17.310000;;17.200000;16.450000;;;;;;
43196;SPS30;28816;49.852;18.282;2023-12-20T11:26:17;15.700000;;15.680000;14.840000;;;;;;
43196;SPS30;28816;49.852;18.282;2023-12-20T11:31:22;16.170000;;16.060000;15.280000;;;;;;
43196;SPS30;28816;49.852;18.282;2023-12-20T11:36:26;17.060000;;17.030000;16.010000;;;;;;
43196;SPS30;28816;49.852;18.282;2023-12-20T11:41:32;16.040000;;16.020000;15.050000;;;;;;
43196;SPS30;28816;49.852;18.282;2023-12-20T11:46:36;14.370000;;14.450000;13.590000;;;;;;
43196;SPS30;28816;49.852;18.282;2023-12-20T11:51:38;13.990000;;13.980000;13.250000;;;;;;
43196;SPS30;28816;49.852;18.282;2023-12-20T11:56:41;13.940000;;13.780000;12.950000;;;;;;
43196;SPS30;28816;49.852;18.282;2023-12-20T12:01:43;14.090000;;14.030000;12.970000;;;;;;
43196;SPS30;28816;49.852;18.282;2023-12-20T12:06:48;14.680000;;14.540000;13.620000;;;;;;
43196;SPS30;28816;49.852;18.282;2023-12-20T12:11:50;13.710000;;13.680000;12.920000;;;;;;
43196;SPS30;28816;49.852;18.282;2023-12-20T12:16:52;15.370000;;15.270000;14.390000;;;;;;
43196;SPS30;28816;49.852;18.282;2023-12-20T12:21:54;15.860000;;15.900000;14.830000;;;;;;
43196;SPS30;28816;49.852;18.282;2023-12-20T12:27:04;16.680000;;16.620000;15.800000;;;;;;
43196;SPS30;28816;49.852;18.282;2023-12-20T12:32:06;15.160000;;15.120000;14.280000;;;;;;
43196;SPS30;28816;49.852;18.282;2023-12-20T12:37:09;15.240000;;15.170000;14.150000;;;;;;
43196;SPS30;28816;49.852;18.282;2023-12-20T12:42:11;15.390000;;15.410000;14.360000;;;;;;
43196;SPS30;28816;49.852;18.282;2023-12-20T12:47:13;15.560000;;15.650000;14.500000;;;;;;
43196;SPS30;28816;49.852;18.282;2023-12-20T12:52:15;14.830000;;14.580000;13.820000;;;;;;
43196;SPS30;28816;49.852;18.282;2023-12-20T12:57:17;15.210000;;15.200000;14.360000;;;;;;
43196;SPS30;28816;49.852;18.282;2023-12-20T13:02:19;15.340000;;15.310000;14.490000;;;;;;
43196;SPS30;28816;49.852;18.282;2023-12-20T13:07:22;14.490000;;14.440000;13.670000;;;;;;
43196;SPS30;28816;49.852;18.282;2023-12-20T13:12:24;15.190000;;15.250000;14.330000;;;;;;
43196;SPS30;28816;49.852;18.282;2023-12-20T13:17:26;15.080000;;14.940000;14.070000;;;;;;
43196;SPS30;28816;49.852;18.282;2023-12-20T13:22:27;14.270000;;14.230000;13.400000;;;;;;
43196;SPS30;28816;49.852;18.282;2023-12-20T13:27:30;13.460000;;13.410000;12.770000;;;;;;
43196;SPS30;28816;49.852;18.282;2023-12-20T13:32:31;13.580000;;13.510000;12.900000;;;;;;
43196;SPS30;28816;49.852;18.282;2023-12-20T13:37:33;13.200000;;13.210000;12.360000;;;;;;
43196;SPS30;28816;49.852;18.282;2023-12-20T13:42:35;12.470000;;12.440000;11.730000;;;;;;
43196;SPS30;28816;49.852;18.282;2023-12-20T13:47:37;12.660000;;12.590000;11.740000;;;;;;
43196;SPS30;28816;49.852;18.282;2023-12-20T13:52:39;13.420000;;13.380000;12.750000;;;;;;
43196;SPS30;28816;49.852;18.282;2023-12-20T13:57:41;8.160000;;8.090000;7.770000;;;;;;
43196;SPS30;28816;49.852;18.282;2023-12-20T14:02:43;5.590000;;5.620000;5.300000;;;;;;
43196;SPS30;28816;49.852;18.282;2023-12-20T14:07:45;5.900000;;5.950000;5.550000;;;;;;
43196;SPS30;28816;49.852;18.282;2023-12-20T14:12:46;6.340000;;6.340000;5.970000;;;;;;
43196;SPS30;28816;49.852;18.282;2023-12-20T14:17:48;7.250000;;7.220000;6.820000;;;;;;
43196;SPS30;28816;49.852;18.282;2023-12-20T14:22:50;7.810000;;7.770000;7.400000;;;;;;
43196;SPS30;28816;49.852;18.282;2023-12-20T14:27:52;9.880000;;9.940000;9.240000;;;;;;
43196;SPS30;28816;49.852;18.282;2023-12-20T14:32:54;9.620000;;9.560000;9.050000;;;;;;
43196;SPS30;28816;49.852;18.282;2023-12-20T14:37:56;9.920000;;9.860000;9.400000;;;;;;
43196;SPS30;28816;49.852;18.282;2023-12-20T14:42:58;8.770000;;8.860000;8.230000;;;;;;
43196;SPS30;28816;49.852;18.282;2023-12-20T14:48:00;11.000000;;10.950000;10.510000;;;;;;
43196;SPS30;28816;49.852;18.282;2023-12-20T14:53:02;11.400000;;11.340000;10.730000;;;;;;
43196;SPS30;28816;49.852;18.282;2023-12-20T14:58:04;11.070000;;11.080000;10.470000;;;;;;
43196;SPS30;28816;49.852;18.282;2023-12-20T15:03:06;11.500000;;11.510000;10.730000;;;;;;
43196;SPS30;28816;49.852;18.282;2023-12-20T15:08:08;11.870000;;11.820000;11.100000;;;;;;
43196;SPS30;28816;49.852;18.282;2023-12-20T15:13:10;10.980000;;11.010000;10.140000;;;;;;
43196;SPS30;28816;49.852;18.282;2023-12-20T15:18:12;13.190000;;13.140000;12.510000;;;;;;
43196;SPS30;28816;49.852;18.282;2023-12-20T15:23:14;11.690000;;11.610000;11.100000;;;;;;
43196;SPS30;28816;49.852;18.282;2023-12-20T15:28:16;11.850000;;11.820000;11.210000;;;;;;
43196;SPS30;28816;49.852;18.282;2023-12-20T15:33:18;11.100000;;10.940000;10.650000;;;;;;
43196;SPS30;28816;49.852;18.282;2023-12-20T15:38:20;10.250000;;10.280000;9.660000;;;;;;
43196;SPS30;28816;49.852;18.282;2023-12-20T15:43:22;10.930000;;10.950000;10.280000;;;;;;
43196;SPS30;28816;49.852;18.282;2023-12-20T15:48:24;11.070000;;11.130000;10.480000;;;;;;
43196;SPS30;28816;49.852;18.282;2023-12-20T15:53:26;12.410000;;12.430000;11.720000;;;;;;
43196;SPS30;28816;49.852;18.282;2023-12-20T15:58:28;10.730000;;10.730000;10.140000;;;;;;
43196;SPS30;28816;49.852;18.282;2023-12-20T16:03:30;10.240000;;10.140000;9.780000;;;;;;
43196;SPS30;28816;49.852;18.282;2023-12-20T16:08:32;10.440000;;10.420000;9.900000;;;;;;
43196;SPS30;28816;49.852;18.282;2023-12-20T16:13:34;9.930000;;9.920000;9.430000;;;;;;
43196;SPS30;28816;49.852;18.282;2023-12-20T16:18:36;10.800000;;10.850000;10.130000;;;;;;
43196;SPS30;28816;49.852;18.282;2023-12-20T16:23:38;15.320000;;15.350000;14.490000;;;;;;
43196;SPS30;28816;49.852;18.282;2023-12-20T16:28:40;10.900000;;10.900000;10.290000;;;;;;
43196;SPS30;28816;49.852;18.282;2023-12-20T16:33:42;10.660000;;10.620000;10.000000;;;;;;
43196;SPS30;28816;49.852;18.282;2023-12-20T16:38:44;10.840000;;10.710000;10.170000;;;;;;
43196;SPS30;28816;49.852;18.282;2023-12-20T16:43:46;10.360000;;10.420000;9.720000;;;;;;
43196;SPS30;28816;49.852;18.282;2023-12-20T16:48:48;10.230000;;10.140000;9.600000;;;;;;
43196;SPS30;28816;49.852;18.282;2023-12-20T16:53:50;10.260000;;10.330000;9.590000;;;;;;
43196;SPS30;28816;49.852;18.282;2023-12-20T16:58:52;9.090000;;9.070000;8.540000;;;;;;
43196;SPS30;28816;49.852;18.282;2023-12-20T17:03:54;8.870000;;8.880000;8.340000;;;;;;
43196;SPS30;28816;49.852;18.282;2023-12-20T17:08:56;8.190000;;8.240000;7.690000;;;;;;
43196;SPS30;28816;49.852;18.282;2023-12-20T17:13:59;9.100000;;9.090000;8.610000;;;;;;
43196;SPS30;28816;49.852;18.282;2023-12-20T17:19:01;9.040000;;9.030000;8.580000;;;;;;
43196;SPS30;28816;49.852;18.282;2023-12-20T17:24:03;7.780000;;7.770000;7.300000;;;;;;
43196;SPS30;28816;49.852;18.282;2023-12-20T17:29:07;8.120000;;8.090000;7.560000;;;;;;
43196;SPS30;28816;49.852;18.282;2023-12-20T17:34:10;8.290000;;8.250000;7.910000;;;;;;
43196;SPS30;28816;49.852;18.282;2023-12-20T17:39:11;8.350000;;8.360000;7.870000;;;;;;
43196;SPS30;28816;49.852;18.282;2023-12-20T17:44:13;6.810000;;6.760000;6.470000;;;;;;
43196;SPS30;28816;49.852;18.282;2023-12-20T17:49:16;6.470000;;6.500000;6.130000;;;;;;
43196;SPS30;28816;49.852;18.282;2023-12-20T17:54:17;6.410000;;6.390000;6.050000;;;;;;
43196;SPS30;28816;49.852;18.282;2023-12-20T17:59:20;6.480000;;6.420000;6.150000;;;;;;
43196;SPS30;28816;49.852;18.282;2023-12-20T18:04:21;6.360000;;6.320000;5.930000;;;;;;
43196;SPS30;28816;49.852;18.282;2023-12-20T18:09:23;6.320000;;6.340000;5.970000;;;;;;
43196;SPS30;28816;49.852;18.282;2023-12-20T18:14:25;6.380000;;6.350000;6.050000;;;;;;
43196;SPS30;28816;49.852;18.282;2023-12-20T18:19:28;6.860000;;6.900000;6.460000;;;;;;
43196;SPS30;28816;49.852;18.282;2023-12-20T18:24:30;6.970000;;6.910000;6.610000;;;;;;
43196;SPS30;28816;49.852;18.282;2023-12-20T18:29:32;16.940000;;16.970000;16.080000;;;;;;
43196;SPS30;28816;49.852;18.282;2023-12-20T18:34:33;8.350000;;8.290000;7.940000;;;;;;
43196;SPS30;28816;49.852;18.282;2023-12-20T18:39:35;5.690000;;5.700000;5.380000;;;;;;
43196;SPS30;28816;49.852;18.282;2023-12-20T18:44:37;5.820000;;5.810000;5.490000;;;;;;
43196;SPS30;28816;49.852;18.282;2023-12-20T18:49:39;6.060000;;6.090000;5.610000;;;;;;
43196;SPS30;28816;49.852;18.282;2023-12-20T18:54:41;4.870000;;4.860000;4.650000;;;;;;
43196;SPS30;28816;49.852;18.282;2023-12-20T18:59:43;5.250000;;5.240000;4.950000;;;;;;
43196;SPS30;28816;49.852;18.282;2023-12-20T19:04:45;5.590000;;5.540000;5.300000;;;;;;
43196;SPS30;28816;49.852;18.282;2023-12-20T19:09:47;5.700000;;5.710000;5.380000;;;;;;
43196;SPS30;28816;49.852;18.282;2023-12-20T19:14:49;5.420000;;5.380000;5.150000;;;;;;
43196;SPS30;28816;49.852;18.282;2023-12-20T19:19:51;5.100000;;5.060000;4.850000;;;;;;
43196;SPS30;28816;49.852;18.282;2023-12-20T19:24:53;5.510000;;5.470000;5.190000;;;;;;
43196;SPS30;28816;49.852;18.282;2023-12-20T19:29:55;6.080000;;6.090000;5.740000;;;;;;
43196;SPS30;28816;49.852;18.282;2023-12-20T19:34:57;28.010000;;27.640000;26.880000;;;;;;
43196;SPS30;28816;49.852;18.282;2023-12-20T19:39:59;15.440000;;15.480000;14.480000;;;;;;
43196;SPS30;28816;49.852;18.282;2023-12-20T19:45:01;9.980000;;9.970000;9.410000;;;;;;
43196;SPS30;28816;49.852;18.282;2023-12-20T19:50:03;5.940000;;5.880000;5.640000;;;;;;
43196;SPS30;28816;49.852;18.282;2023-12-20T19:55:06;6.110000;;6.140000;5.700000;;;;;;
43196;SPS30;28816;49.852;18.282;2023-12-20T20:00:09;5.930000;;5.930000;5.620000;;;;;;
43196;SPS30;28816;49.852;18.282;2023-12-20T20:05:12;5.610000;;5.620000;5.300000;;;;;;
43196;SPS30;28816;49.852;18.282;2023-12-20T20:10:14;5.270000;;5.270000;4.980000;;;;;;
43196;SPS30;28816;49.852;18.282;2023-12-20T20:15:16;6.920000;;6.880000;6.550000;;;;;;
43196;SPS30;28816;49.852;18.282;2023-12-20T20:20:18;6.230000;;6.330000;5.760000;;;;;;
43196;SPS30;28816;49.852;18.282;2023-12-20T20:25:20;5.980000;;5.930000;5.580000;;;;;;
43196;SPS30;28816;49.852;18.282;2023-12-20T20:30:22;6.810000;;6.790000;6.430000;;;;;;
43196;SPS30;28816;49.852;18.282;2023-12-20T20:35:24;7.200000;;7.090000;6.660000;;;;;;
43196;SPS30;28816;49.852;18.282;2023-12-20T20:40:26;6.230000;;6.190000;5.800000;;;;;;
43196;SPS30;28816;49.852;18.282;2023-12-20T20:45:28;6.620000;;6.650000;6.260000;;;;;;
43196;SPS30;28816;49.852;18.282;2023-12-20T20:50:30;7.210000;;7.230000;6.780000;;;;;;
43196;SPS30;28816;49.852;18.282;2023-12-20T20:55:32;6.960000;;6.940000;6.550000;;;;;;
43196;SPS30;28816;49.852;18.282;2023-12-20T21:00:34;6.390000;;6.360000;5.960000;;;;;;
43196;SPS30;28816;49.852;18.282;2023-12-20T21:05:36;6.210000;;6.190000;5.880000;;;;;;
43196;SPS30;28816;49.852;18.282;2023-12-20T21:10:39;6.280000;;6.370000;5.870000;;;;;;
43196;SPS30;28816;49.852;18.282;2023-12-20T21:15:41;6.060000;;6.060000;5.630000;;;;;;
43196;SPS30;28816;49.852;18.282;2023-12-20T21:20:43;6.800000;;6.760000;6.180000;;;;;;
43196;SPS30;28816;49.852;18.282;2023-12-20T21:25:45;6.630000;;6.550000;6.100000;;;;;;
43196;SPS30;28816;49.852;18.282;2023-12-20T21:30:48;6.020000;;5.940000;5.560000;;;;;;
43196;SPS30;28816;49.852;18.282;2023-12-20T21:35:49;6.290000;;6.270000;5.830000;;;;;;
43196;SPS30;28816;49.852;18.282;2023-12-20T21:40:51;5.280000;;5.250000;4.960000;;;;;;
43196;SPS30;28816;49.852;18.282;2023-12-20T21:45:53;4.780000;;4.750000;4.510000;;;;;;
43196;SPS30;28816;49.852;18.282;2023-12-20T21:50:55;4.240000;;4.250000;3.970000;;;;;;
43196;SPS30;28816;49.852;18.282;2023-12-20T21:55:58;5.200000;;5.200000;4.850000;;;;;;
43196;SPS30;28816;49.852;18.282;2023-12-20T22:01:00;4.580000;;4.560000;4.340000;;;;;;
43196;SPS30;28816;49.852;18.282;2023-12-20T22:06:02;5.090000;;5.120000;4.710000;;;;;;
43196;SPS30;28816;49.852;18.282;2023-12-20T22:11:04;6.180000;;6.070000;5.830000;;;;;;
43196;SPS30;28816;49.852;18.282;2023-12-20T22:16:06;4.680000;;4.690000;4.330000;;;;;;
43196;SPS30;28816;49.852;18.282;2023-12-20T22:21:07;5.310000;;5.350000;4.930000;;;;;;
43196;SPS30;28816;49.852;18.282;2023-12-20T22:26:10;4.550000;;4.530000;4.220000;;;;;;
43196;SPS30;28816;49.852;18.282;2023-12-20T22:31:12;4.500000;;4.480000;4.230000;;;;;;
43196;SPS30;28816;49.852;18.282;2023-12-20T22:36:14;5.420000;;5.370000;5.140000;;;;;;
43196;SPS30;28816;49.852;18.282;2023-12-20T22:41:16;4.970000;;4.950000;4.660000;;;;;;